sensor_id;sensor_type;location;lat;lon;timestamp;P1;durP1;ratioP1;P2;durP2;ratioP2
15616;SDS011;7908;51.688;7.130;2023-05-07T00:01:08;20.90;;;18.83;;
15616;SDS011;7908;51.688;7.130;2023-05-07T00:03:37;22.67;;;20.47;;
15616;SDS011;7908;51.688;7.130;2023-05-07T00:06:06;22.90;;;20.30;;
15616;SDS011;7908;51.688;7.130;2023-05-07T00:08:36;19.53;;;17.43;;
15616;SDS011;7908;51.688;7.130;2023-05-07T00:11:05;22.13;;;19.90;;
15616;SDS011;7908;51.688;7.130;2023-05-07T00:13:34;21.53;;;19.43;;
15616;SDS011;7908;51.688;7.130;2023-05-07T00:16:03;22.17;;;19.73;;
15616;SDS011;7908;51.688;7.130;2023-05-07T00:18:32;22.77;;;20.67;;
15616;SDS011;7908;51.688;7.130;2023-05-07T00:21:01;23.67;;;21.30;;
15616;SDS011;7908;51.688;7.130;2023-05-07T00:23:29;22.93;;;20.63;;
15616;SDS011;7908;51.688;7.130;2023-05-07T00:25:59;24.97;;;22.50;;
15616;SDS011;7908;51.688;7.130;2023-05-07T00:28:28;23.77;;;21.33;;
15616;SDS011;7908;51.688;7.130;2023-05-07T00:30:57;22.93;;;20.67;;
15616;SDS011;7908;51.688;7.130;2023-05-07T00:33:25;23.47;;;21.20;;
15616;SDS011;7908;51.688;7.130;2023-05-07T00:35:54;23.83;;;21.57;;
15616;SDS011;7908;51.688;7.130;2023-05-07T00:38:23;25.87;;;23.07;;
15616;SDS011;7908;51.688;7.130;2023-05-07T00:40:52;24.00;;;21.63;;
15616;SDS011;7908;51.688;7.130;2023-05-07T00:43:22;25.30;;;22.63;;
15616;SDS011;7908;51.688;7.130;2023-05-07T00:45:50;22.93;;;20.60;;
15616;SDS011;7908;51.688;7.130;2023-05-07T00:48:19;25.77;;;23.20;;
15616;SDS011;7908;51.688;7.130;2023-05-07T00:50:50;26.90;;;23.33;;
15616;SDS011;7908;51.688;7.130;2023-05-07T00:53:19;25.17;;;22.67;;
15616;SDS011;7908;51.688;7.130;2023-05-07T00:55:49;23.97;;;21.70;;
15616;SDS011;7908;51.688;7.130;2023-05-07T00:58:18;22.60;;;20.40;;
15616;SDS011;7908;51.688;7.130;2023-05-07T01:00:50;23.47;;;21.13;;
15616;SDS011;7908;51.688;7.130;2023-05-07T01:03:19;24.00;;;21.60;;
15616;SDS011;7908;51.688;7.130;2023-05-07T01:05:49;27.27;;;23.37;;
15616;SDS011;7908;51.688;7.130;2023-05-07T01:08:20;24.73;;;22.13;;
15616;SDS011;7908;51.688;7.130;2023-05-07T01:10:53;26.97;;;24.27;;
15616;SDS011;7908;51.688;7.130;2023-05-07T01:13:23;27.23;;;24.10;;
15616;SDS011;7908;51.688;7.130;2023-05-07T01:15:54;27.40;;;24.60;;
15616;SDS011;7908;51.688;7.130;2023-05-07T01:18:22;26.17;;;23.57;;
15616;SDS011;7908;51.688;7.130;2023-05-07T01:20:52;27.00;;;24.33;;
15616;SDS011;7908;51.688;7.130;2023-05-07T01:23:23;44.37;;;26.97;;
15616;SDS011;7908;51.688;7.130;2023-05-07T01:25:52;26.97;;;24.37;;
15616;SDS011;7908;51.688;7.130;2023-05-07T01:28:21;28.17;;;25.20;;
15616;SDS011;7908;51.688;7.130;2023-05-07T01:30:52;26.43;;;23.70;;
15616;SDS011;7908;51.688;7.130;2023-05-07T01:33:24;25.73;;;23.23;;
15616;SDS011;7908;51.688;7.130;2023-05-07T01:35:53;27.47;;;24.73;;
15616;SDS011;7908;51.688;7.130;2023-05-07T01:42:05;25.67;;;23.07;;
15616;SDS011;7908;51.688;7.130;2023-05-07T01:44:47;24.33;;;21.87;;
15616;SDS011;7908;51.688;7.130;2023-05-07T01:47:15;28.90;;;26.00;;
15616;SDS011;7908;51.688;7.130;2023-05-07T01:49:44;27.63;;;24.87;;
15616;SDS011;7908;51.688;7.130;2023-05-07T01:52:13;27.83;;;24.47;;
15616;SDS011;7908;51.688;7.130;2023-05-07T01:54:42;27.53;;;24.73;;
15616;SDS011;7908;51.688;7.130;2023-05-07T01:57:12;26.03;;;23.47;;
15616;SDS011;7908;51.688;7.130;2023-05-07T01:59:41;26.87;;;23.97;;
15616;SDS011;7908;51.688;7.130;2023-05-07T02:02:09;28.50;;;25.67;;
15616;SDS011;7908;51.688;7.130;2023-05-07T02:04:38;25.23;;;22.20;;
15616;SDS011;7908;51.688;7.130;2023-05-07T02:07:07;28.00;;;25.10;;
15616;SDS011;7908;51.688;7.130;2023-05-07T02:09:36;24.67;;;22.27;;
15616;SDS011;7908;51.688;7.130;2023-05-07T02:12:06;25.67;;;23.13;;
15616;SDS011;7908;51.688;7.130;2023-05-07T02:14:36;27.17;;;24.47;;
15616;SDS011;7908;51.688;7.130;2023-05-07T02:17:04;28.20;;;25.40;;
15616;SDS011;7908;51.688;7.130;2023-05-07T02:19:33;25.13;;;22.23;;
15616;SDS011;7908;51.688;7.130;2023-05-07T02:22:02;24.40;;;21.90;;
15616;SDS011;7908;51.688;7.130;2023-05-07T02:24:31;26.90;;;24.00;;
15616;SDS011;7908;51.688;7.130;2023-05-07T02:26:59;25.77;;;23.07;;
15616;SDS011;7908;51.688;7.130;2023-05-07T02:29:28;27.07;;;24.47;;
15616;SDS011;7908;51.688;7.130;2023-05-07T02:31:59;26.83;;;24.13;;
15616;SDS011;7908;51.688;7.130;2023-05-07T02:34:27;26.63;;;23.80;;
15616;SDS011;7908;51.688;7.130;2023-05-07T02:36:56;26.20;;;23.53;;
15616;SDS011;7908;51.688;7.130;2023-05-07T02:39:25;27.20;;;24.43;;
15616;SDS011;7908;51.688;7.130;2023-05-07T02:41:53;28.30;;;25.33;;
15616;SDS011;7908;51.688;7.130;2023-05-07T02:44:22;27.03;;;24.13;;
15616;SDS011;7908;51.688;7.130;2023-05-07T02:46:51;28.27;;;25.27;;
15616;SDS011;7908;51.688;7.130;2023-05-07T02:49:21;26.67;;;23.87;;
15616;SDS011;7908;51.688;7.130;2023-05-07T02:51:49;26.47;;;23.87;;
15616;SDS011;7908;51.688;7.130;2023-05-07T02:54:18;27.77;;;24.97;;
15616;SDS011;7908;51.688;7.130;2023-05-07T02:56:47;27.80;;;24.80;;
15616;SDS011;7908;51.688;7.130;2023-05-07T02:59:15;28.23;;;25.43;;
15616;SDS011;7908;51.688;7.130;2023-05-07T03:01:44;27.10;;;24.20;;
15616;SDS011;7908;51.688;7.130;2023-05-07T03:04:12;27.10;;;24.20;;
15616;SDS011;7908;51.688;7.130;2023-05-07T03:06:43;23.87;;;21.13;;
15616;SDS011;7908;51.688;7.130;2023-05-07T03:09:12;25.43;;;22.87;;
15616;SDS011;7908;51.688;7.130;2023-05-07T03:11:41;25.90;;;23.30;;
15616;SDS011;7908;51.688;7.130;2023-05-07T03:14:09;31.43;;;28.10;;
15616;SDS011;7908;51.688;7.130;2023-05-07T03:16:38;26.93;;;24.00;;
15616;SDS011;7908;51.688;7.130;2023-05-07T03:19:07;27.13;;;24.43;;
15616;SDS011;7908;51.688;7.130;2023-05-07T03:21:35;26.37;;;23.63;;
15616;SDS011;7908;51.688;7.130;2023-05-07T03:24:06;27.37;;;24.63;;
15616;SDS011;7908;51.688;7.130;2023-05-07T03:26:34;25.97;;;23.40;;
15616;SDS011;7908;51.688;7.130;2023-05-07T03:29:03;24.50;;;22.00;;
15616;SDS011;7908;51.688;7.130;2023-05-07T03:31:32;28.90;;;25.90;;
15616;SDS011;7908;51.688;7.130;2023-05-07T03:34:01;28.90;;;25.90;;
15616;SDS011;7908;51.688;7.130;2023-05-07T03:36:29;26.70;;;24.00;;
15616;SDS011;7908;51.688;7.130;2023-05-07T03:38:58;27.77;;;24.93;;
15616;SDS011;7908;51.688;7.130;2023-05-07T03:41:28;27.67;;;24.93;;
15616;SDS011;7908;51.688;7.130;2023-05-07T03:43:57;26.97;;;24.17;;
15616;SDS011;7908;51.688;7.130;2023-05-07T03:46:26;29.17;;;26.23;;
15616;SDS011;7908;51.688;7.130;2023-05-07T03:48:54;29.00;;;25.87;;
15616;SDS011;7908;51.688;7.130;2023-05-07T03:51:23;29.33;;;26.07;;
15616;SDS011;7908;51.688;7.130;2023-05-07T03:53:52;28.40;;;25.20;;
15616;SDS011;7908;51.688;7.130;2023-05-07T03:56:20;28.17;;;25.30;;
15616;SDS011;7908;51.688;7.130;2023-05-07T03:58:51;29.23;;;26.03;;
15616;SDS011;7908;51.688;7.130;2023-05-07T04:01:19;25.97;;;23.17;;
15616;SDS011;7908;51.688;7.130;2023-05-07T04:03:48;27.40;;;24.57;;
15616;SDS011;7908;51.688;7.130;2023-05-07T04:06:17;26.87;;;23.97;;
15616;SDS011;7908;51.688;7.130;2023-05-07T04:08:45;31.17;;;25.87;;
15616;SDS011;7908;51.688;7.130;2023-05-07T04:11:14;27.43;;;24.50;;
15616;SDS011;7908;51.688;7.130;2023-05-07T04:13:42;31.80;;;26.43;;
15616;SDS011;7908;51.688;7.130;2023-05-07T04:16:13;27.40;;;24.50;;
15616;SDS011;7908;51.688;7.130;2023-05-07T04:18:41;26.47;;;23.60;;
15616;SDS011;7908;51.688;7.130;2023-05-07T04:21:13;27.83;;;24.93;;
15616;SDS011;7908;51.688;7.130;2023-05-07T04:23:43;27.70;;;24.90;;
15616;SDS011;7908;51.688;7.130;2023-05-07T04:26:13;27.60;;;24.70;;
15616;SDS011;7908;51.688;7.130;2023-05-07T04:28:43;31.67;;;26.93;;
15616;SDS011;7908;51.688;7.130;2023-05-07T04:31:13;28.07;;;25.00;;
15616;SDS011;7908;51.688;7.130;2023-05-07T04:33:41;28.73;;;25.73;;
15616;SDS011;7908;51.688;7.130;2023-05-07T04:36:10;25.03;;;22.43;;
15616;SDS011;7908;51.688;7.130;2023-05-07T04:38:39;24.30;;;21.93;;
15616;SDS011;7908;51.688;7.130;2023-05-07T04:41:08;24.27;;;21.90;;
15616;SDS011;7908;51.688;7.130;2023-05-07T04:43:37;24.37;;;21.90;;
15616;SDS011;7908;51.688;7.130;2023-05-07T04:46:06;23.00;;;20.83;;
15616;SDS011;7908;51.688;7.130;2023-05-07T04:48:36;22.67;;;20.27;;
15616;SDS011;7908;51.688;7.130;2023-05-07T04:51:05;20.63;;;18.63;;
15616;SDS011;7908;51.688;7.130;2023-05-07T04:53:33;22.40;;;20.07;;
15616;SDS011;7908;51.688;7.130;2023-05-07T04:56:02;20.30;;;18.30;;
15616;SDS011;7908;51.688;7.130;2023-05-07T04:58:31;20.23;;;18.23;;
15616;SDS011;7908;51.688;7.130;2023-05-07T05:01:00;18.83;;;17.03;;
15616;SDS011;7908;51.688;7.130;2023-05-07T05:03:29;19.43;;;16.33;;
15616;SDS011;7908;51.688;7.130;2023-05-07T05:06:00;17.50;;;15.87;;
15616;SDS011;7908;51.688;7.130;2023-05-07T05:08:29;16.80;;;15.20;;
15616;SDS011;7908;51.688;7.130;2023-05-07T05:10:58;16.87;;;15.37;;
15616;SDS011;7908;51.688;7.130;2023-05-07T05:13:28;15.57;;;14.07;;
15616;SDS011;7908;51.688;7.130;2023-05-07T05:15:56;17.10;;;15.47;;
15616;SDS011;7908;51.688;7.130;2023-05-07T05:18:25;15.63;;;14.13;;
15616;SDS011;7908;51.688;7.130;2023-05-07T05:20:54;15.67;;;14.00;;
15616;SDS011;7908;51.688;7.130;2023-05-07T05:23:24;15.60;;;13.80;;
15616;SDS011;7908;51.688;7.130;2023-05-07T05:25:55;14.87;;;13.47;;
15616;SDS011;7908;51.688;7.130;2023-05-07T05:28:24;17.30;;;12.93;;
15616;SDS011;7908;51.688;7.130;2023-05-07T05:30:53;14.03;;;12.73;;
15616;SDS011;7908;51.688;7.130;2023-05-07T05:33:22;12.67;;;11.47;;
15616;SDS011;7908;51.688;7.130;2023-05-07T05:35:51;14.80;;;13.33;;
15616;SDS011;7908;51.688;7.130;2023-05-07T05:38:21;14.67;;;13.27;;
15616;SDS011;7908;51.688;7.130;2023-05-07T05:40:52;15.00;;;13.43;;
15616;SDS011;7908;51.688;7.130;2023-05-07T05:43:22;13.60;;;12.37;;
15616;SDS011;7908;51.688;7.130;2023-05-07T05:45:51;14.93;;;13.57;;
15616;SDS011;7908;51.688;7.130;2023-05-07T05:48:20;13.00;;;11.80;;
15616;SDS011;7908;51.688;7.130;2023-05-07T05:50:49;12.90;;;11.60;;
15616;SDS011;7908;51.688;7.130;2023-05-07T05:53:18;13.17;;;11.87;;
15616;SDS011;7908;51.688;7.130;2023-05-07T05:55:48;13.43;;;11.70;;
15616;SDS011;7908;51.688;7.130;2023-05-07T05:58:17;12.80;;;11.10;;
15616;SDS011;7908;51.688;7.130;2023-05-07T06:00:46;11.47;;;10.37;;
15616;SDS011;7908;51.688;7.130;2023-05-07T06:03:18;11.67;;;10.47;;
15616;SDS011;7908;51.688;7.130;2023-05-07T06:05:47;10.40;;;9.40;;
15616;SDS011;7908;51.688;7.130;2023-05-07T06:08:15;10.47;;;9.07;;
15616;SDS011;7908;51.688;7.130;2023-05-07T06:10:45;10.43;;;9.43;;
15616;SDS011;7908;51.688;7.130;2023-05-07T06:13:15;9.83;;;8.90;;
15616;SDS011;7908;51.688;7.130;2023-05-07T06:15:44;9.90;;;9.00;;
15616;SDS011;7908;51.688;7.130;2023-05-07T06:18:13;11.83;;;8.83;;
15616;SDS011;7908;51.688;7.130;2023-05-07T06:20:41;11.77;;;8.70;;
15616;SDS011;7908;51.688;7.130;2023-05-07T06:23:10;10.83;;;8.87;;
15616;SDS011;7908;51.688;7.130;2023-05-07T06:25:41;9.70;;;8.70;;
15616;SDS011;7908;51.688;7.130;2023-05-07T06:28:10;9.33;;;8.43;;
15616;SDS011;7908;51.688;7.130;2023-05-07T06:30:40;9.10;;;8.20;;
15616;SDS011;7908;51.688;7.130;2023-05-07T06:33:09;8.90;;;8.00;;
15616;SDS011;7908;51.688;7.130;2023-05-07T06:35:38;13.73;;;8.37;;
15616;SDS011;7908;51.688;7.130;2023-05-07T06:38:06;8.60;;;7.80;;
15616;SDS011;7908;51.688;7.130;2023-05-07T06:40:36;10.67;;;8.40;;
15616;SDS011;7908;51.688;7.130;2023-05-07T06:43:04;9.23;;;8.43;;
15616;SDS011;7908;51.688;7.130;2023-05-07T06:45:33;10.67;;;8.03;;
15616;SDS011;7908;51.688;7.130;2023-05-07T06:48:03;7.97;;;7.37;;
15616;SDS011;7908;51.688;7.130;2023-05-07T06:50:32;8.93;;;8.13;;
15616;SDS011;7908;51.688;7.130;2023-05-07T06:53:01;9.63;;;8.07;;
15616;SDS011;7908;51.688;7.130;2023-05-07T06:55:30;9.27;;;8.30;;
15616;SDS011;7908;51.688;7.130;2023-05-07T06:58:01;9.23;;;8.33;;
15616;SDS011;7908;51.688;7.130;2023-05-07T07:00:30;9.77;;;8.77;;
15616;SDS011;7908;51.688;7.130;2023-05-07T07:02:59;9.73;;;8.10;;
15616;SDS011;7908;51.688;7.130;2023-05-07T07:05:29;9.07;;;8.17;;
15616;SDS011;7908;51.688;7.130;2023-05-07T07:07:58;9.03;;;8.20;;
15616;SDS011;7908;51.688;7.130;2023-05-07T07:10:26;10.00;;;8.30;;
15616;SDS011;7908;51.688;7.130;2023-05-07T07:12:55;8.70;;;7.90;;
15616;SDS011;7908;51.688;7.130;2023-05-07T07:15:24;9.27;;;8.43;;
15616;SDS011;7908;51.688;7.130;2023-05-07T07:17:54;9.60;;;8.60;;
15616;SDS011;7908;51.688;7.130;2023-05-07T07:20:22;9.07;;;8.07;;
15616;SDS011;7908;51.688;7.130;2023-05-07T07:22:52;13.10;;;8.60;;
15616;SDS011;7908;51.688;7.130;2023-05-07T07:25:21;10.27;;;8.63;;
15616;SDS011;7908;51.688;7.130;2023-05-07T07:27:50;9.00;;;8.10;;
15616;SDS011;7908;51.688;7.130;2023-05-07T07:30:19;10.50;;;8.50;;
15616;SDS011;7908;51.688;7.130;2023-05-07T07:32:48;9.67;;;8.73;;
15616;SDS011;7908;51.688;7.130;2023-05-07T07:35:16;10.80;;;8.60;;
15616;SDS011;7908;51.688;7.130;2023-05-07T07:37:45;9.90;;;9.00;;
15616;SDS011;7908;51.688;7.130;2023-05-07T07:40:18;10.27;;;9.07;;
15616;SDS011;7908;51.688;7.130;2023-05-07T07:42:47;9.07;;;8.17;;
15616;SDS011;7908;51.688;7.130;2023-05-07T07:45:15;8.93;;;7.97;;
15616;SDS011;7908;51.688;7.130;2023-05-07T07:47:46;9.97;;;8.50;;
15616;SDS011;7908;51.688;7.130;2023-05-07T07:50:16;10.07;;;9.03;;
15616;SDS011;7908;51.688;7.130;2023-05-07T07:53:05;10.37;;;9.33;;
15616;SDS011;7908;51.688;7.130;2023-05-07T07:55:39;9.47;;;8.07;;
15616;SDS011;7908;51.688;7.130;2023-05-07T07:58:12;9.87;;;7.87;;
15616;SDS011;7908;51.688;7.130;2023-05-07T08:00:41;8.60;;;7.53;;
15616;SDS011;7908;51.688;7.130;2023-05-07T08:03:12;10.27;;;8.03;;
15616;SDS011;7908;51.688;7.130;2023-05-07T08:05:43;9.53;;;8.60;;
15616;SDS011;7908;51.688;7.130;2023-05-07T08:08:12;9.77;;;8.77;;
15616;SDS011;7908;51.688;7.130;2023-05-07T08:10:42;10.87;;;8.73;;
15616;SDS011;7908;51.688;7.130;2023-05-07T08:13:11;14.30;;;8.30;;
15616;SDS011;7908;51.688;7.130;2023-05-07T08:15:40;10.37;;;9.30;;
15616;SDS011;7908;51.688;7.130;2023-05-07T08:18:12;9.07;;;8.17;;
15616;SDS011;7908;51.688;7.130;2023-05-07T08:20:41;11.00;;;8.27;;
15616;SDS011;7908;51.688;7.130;2023-05-07T08:23:10;9.73;;;7.87;;
15616;SDS011;7908;51.688;7.130;2023-05-07T08:25:39;9.10;;;8.20;;
15616;SDS011;7908;51.688;7.130;2023-05-07T08:28:10;9.40;;;7.90;;
15616;SDS011;7908;51.688;7.130;2023-05-07T08:30:39;10.20;;;8.77;;
15616;SDS011;7908;51.688;7.130;2023-05-07T08:33:08;9.13;;;8.13;;
15616;SDS011;7908;51.688;7.130;2023-05-07T08:35:39;12.50;;;8.80;;
15616;SDS011;7908;51.688;7.130;2023-05-07T08:38:12;9.53;;;8.50;;
15616;SDS011;7908;51.688;7.130;2023-05-07T08:40:41;9.67;;;8.73;;
15616;SDS011;7908;51.688;7.130;2023-05-07T08:43:12;10.17;;;8.50;;
15616;SDS011;7908;51.688;7.130;2023-05-07T08:45:42;9.53;;;8.63;;
15616;SDS011;7908;51.688;7.130;2023-05-07T08:48:14;10.07;;;8.83;;
15616;SDS011;7908;51.688;7.130;2023-05-07T08:50:44;8.83;;;7.60;;
15616;SDS011;7908;51.688;7.130;2023-05-07T08:53:13;9.07;;;8.17;;
15616;SDS011;7908;51.688;7.130;2023-05-07T08:55:43;8.13;;;7.33;;
15616;SDS011;7908;51.688;7.130;2023-05-07T08:58:14;7.90;;;7.10;;
15616;SDS011;7908;51.688;7.130;2023-05-07T09:00:43;8.57;;;7.53;;
15616;SDS011;7908;51.688;7.130;2023-05-07T09:03:12;9.33;;;7.30;;
15616;SDS011;7908;51.688;7.130;2023-05-07T09:05:41;8.07;;;7.27;;
15616;SDS011;7908;51.688;7.130;2023-05-07T09:08:14;9.23;;;7.00;;
15616;SDS011;7908;51.688;7.130;2023-05-07T09:10:44;9.07;;;7.63;;
15616;SDS011;7908;51.688;7.130;2023-05-07T09:13:14;8.73;;;7.67;;
15616;SDS011;7908;51.688;7.130;2023-05-07T09:15:45;10.27;;;8.50;;
15616;SDS011;7908;51.688;7.130;2023-05-07T09:18:14;8.07;;;7.28;;
15616;SDS011;7908;51.688;7.130;2023-05-07T09:20:43;8.10;;;7.30;;
15616;SDS011;7908;51.688;7.130;2023-05-07T09:23:12;8.00;;;7.20;;
15616;SDS011;7908;51.688;7.130;2023-05-07T09:25:42;8.60;;;7.75;;
15616;SDS011;7908;51.688;7.130;2023-05-07T09:28:11;8.13;;;7.13;;
15616;SDS011;7908;51.688;7.130;2023-05-07T09:30:41;8.23;;;6.97;;
15616;SDS011;7908;51.688;7.130;2023-05-07T09:33:10;7.35;;;6.65;;
15616;SDS011;7908;51.688;7.130;2023-05-07T09:35:39;8.27;;;7.30;;
15616;SDS011;7908;51.688;7.130;2023-05-07T09:38:09;10.65;;;6.93;;
15616;SDS011;7908;51.688;7.130;2023-05-07T09:40:38;7.85;;;7.00;;
15616;SDS011;7908;51.688;7.130;2023-05-07T09:43:10;9.35;;;7.78;;
15616;SDS011;7908;51.688;7.130;2023-05-07T09:45:42;8.35;;;6.68;;
15616;SDS011;7908;51.688;7.130;2023-05-07T09:48:11;10.88;;;8.02;;
15616;SDS011;7908;51.688;7.130;2023-05-07T09:50:45;7.68;;;6.88;;
15616;SDS011;7908;51.688;7.130;2023-05-07T09:53:17;9.07;;;7.38;;
15616;SDS011;7908;51.688;7.130;2023-05-07T09:55:46;8.02;;;6.63;;
15616;SDS011;7908;51.688;7.130;2023-05-07T09:58:15;7.68;;;6.38;;
15616;SDS011;7908;51.688;7.130;2023-05-07T10:00:49;8.23;;;6.10;;
15616;SDS011;7908;51.688;7.130;2023-05-07T10:03:20;8.05;;;6.65;;
15616;SDS011;7908;51.688;7.130;2023-05-07T10:05:50;7.93;;;6.72;;
15616;SDS011;7908;51.688;7.130;2023-05-07T10:08:21;8.70;;;6.10;;
15616;SDS011;7908;51.688;7.130;2023-05-07T10:10:49;9.82;;;6.88;;
15616;SDS011;7908;51.688;7.130;2023-05-07T10:13:19;7.53;;;6.53;;
15616;SDS011;7908;51.688;7.130;2023-05-07T10:15:50;12.32;;;7.65;;
15616;SDS011;7908;51.688;7.130;2023-05-07T10:18:19;9.68;;;7.80;;
15616;SDS011;7908;51.688;7.130;2023-05-07T10:20:56;7.30;;;6.57;;
15616;SDS011;7908;51.688;7.130;2023-05-07T10:23:31;8.57;;;5.85;;
15616;SDS011;7908;51.688;7.130;2023-05-07T10:26:02;7.35;;;6.05;;
15616;SDS011;7908;51.688;7.130;2023-05-07T10:28:35;7.72;;;5.75;;
15616;SDS011;7908;51.688;7.130;2023-05-07T10:34:10;7.97;;;6.35;;
15616;SDS011;7908;51.688;7.130;2023-05-07T10:36:45;9.55;;;7.20;;
15616;SDS011;7908;51.688;7.130;2023-05-07T10:39:15;7.50;;;5.95;;
15616;SDS011;7908;51.688;7.130;2023-05-07T10:41:48;8.05;;;7.25;;
15616;SDS011;7908;51.688;7.130;2023-05-07T10:44:27;7.28;;;5.78;;
15616;SDS011;7908;51.688;7.130;2023-05-07T10:47:04;7.60;;;5.57;;
15616;SDS011;7908;51.688;7.130;2023-05-07T10:49:38;9.93;;;6.05;;
15616;SDS011;7908;51.688;7.130;2023-05-07T10:52:46;8.77;;;7.35;;
15616;SDS011;7908;51.688;7.130;2023-05-07T11:01:59;8.50;;;7.63;;
15616;SDS011;7908;51.688;7.130;2023-05-07T11:04:33;11.25;;;8.18;;
15616;SDS011;7908;51.688;7.130;2023-05-07T11:09:59;7.40;;;6.70;;
15616;SDS011;7908;51.688;7.130;2023-05-07T11:12:47;10.55;;;7.43;;
15616;SDS011;7908;51.688;7.130;2023-05-07T11:15:36;9.10;;;7.32;;
15616;SDS011;7908;51.688;7.130;2023-05-07T11:18:14;12.60;;;8.20;;
15616;SDS011;7908;51.688;7.130;2023-05-07T11:20:46;9.25;;;8.00;;
15616;SDS011;7908;51.688;7.130;2023-05-07T11:26:43;8.35;;;7.13;;
15616;SDS011;7908;51.688;7.130;2023-05-07T11:29:15;8.75;;;7.07;;
15616;SDS011;7908;51.688;7.130;2023-05-07T11:31:48;11.82;;;9.82;;
15616;SDS011;7908;51.688;7.130;2023-05-07T11:34:22;11.07;;;9.40;;
15616;SDS011;7908;51.688;7.130;2023-05-07T11:36:53;12.32;;;8.23;;
15616;SDS011;7908;51.688;7.130;2023-05-07T11:39:24;11.95;;;10.65;;
15616;SDS011;7908;51.688;7.130;2023-05-07T11:41:56;11.55;;;9.88;;
15616;SDS011;7908;51.688;7.130;2023-05-07T11:44:25;12.27;;;10.25;;
15616;SDS011;7908;51.688;7.130;2023-05-07T11:47:10;11.93;;;10.43;;
15616;SDS011;7908;51.688;7.130;2023-05-07T11:49:39;12.27;;;9.18;;
15616;SDS011;7908;51.688;7.130;2023-05-07T11:52:08;13.95;;;9.70;;
15616;SDS011;7908;51.688;7.130;2023-05-07T11:54:37;10.93;;;8.80;;
15616;SDS011;7908;51.688;7.130;2023-05-07T11:57:10;12.02;;;9.02;;
15616;SDS011;7908;51.688;7.130;2023-05-07T11:59:43;10.18;;;6.65;;
15616;SDS011;7908;51.688;7.130;2023-05-07T12:02:13;9.63;;;6.55;;
15616;SDS011;7908;51.688;7.130;2023-05-07T12:04:42;6.63;;;5.82;;
15616;SDS011;7908;51.688;7.130;2023-05-07T12:07:11;8.00;;;6.70;;
15616;SDS011;7908;51.688;7.130;2023-05-07T12:09:41;11.45;;;6.95;;
15616;SDS011;7908;51.688;7.130;2023-05-07T12:12:12;7.80;;;6.32;;
15616;SDS011;7908;51.688;7.130;2023-05-07T12:14:44;8.57;;;6.88;;
15616;SDS011;7908;51.688;7.130;2023-05-07T12:17:14;8.32;;;5.75;;
15616;SDS011;7908;51.688;7.130;2023-05-07T12:19:44;8.43;;;6.78;;
15616;SDS011;7908;51.688;7.130;2023-05-07T12:22:14;6.63;;;4.90;;
15616;SDS011;7908;51.688;7.130;2023-05-07T12:24:44;7.47;;;4.70;;
15616;SDS011;7908;51.688;7.130;2023-05-07T12:27:15;7.10;;;4.57;;
15616;SDS011;7908;51.688;7.130;2023-05-07T12:29:45;6.70;;;5.28;;
15616;SDS011;7908;51.688;7.130;2023-05-07T12:32:15;6.70;;;4.55;;
15616;SDS011;7908;51.688;7.130;2023-05-07T12:34:45;10.98;;;5.28;;
15616;SDS011;7908;51.688;7.130;2023-05-07T12:37:15;7.70;;;5.28;;
15616;SDS011;7908;51.688;7.130;2023-05-07T12:39:46;6.35;;;4.47;;
15616;SDS011;7908;51.688;7.130;2023-05-07T12:42:19;8.38;;;4.57;;
15616;SDS011;7908;51.688;7.130;2023-05-07T12:44:52;5.65;;;4.20;;
15616;SDS011;7908;51.688;7.130;2023-05-07T12:47:21;6.53;;;4.05;;
15616;SDS011;7908;51.688;7.130;2023-05-07T12:49:50;5.40;;;4.55;;
15616;SDS011;7908;51.688;7.130;2023-05-07T12:52:19;8.02;;;4.20;;
15616;SDS011;7908;51.688;7.130;2023-05-07T12:54:49;5.40;;;4.20;;
15616;SDS011;7908;51.688;7.130;2023-05-07T12:57:20;5.40;;;3.58;;
15616;SDS011;7908;51.688;7.130;2023-05-07T12:59:57;5.55;;;3.63;;
15616;SDS011;7908;51.688;7.130;2023-05-07T13:02:32;4.90;;;3.70;;
15616;SDS011;7908;51.688;7.130;2023-05-07T13:05:04;6.00;;;4.20;;
15616;SDS011;7908;51.688;7.130;2023-05-07T13:07:33;5.38;;;3.92;;
15616;SDS011;7908;51.688;7.130;2023-05-07T13:10:04;5.75;;;4.00;;
15616;SDS011;7908;51.688;7.130;2023-05-07T13:12:36;4.55;;;3.95;;
15616;SDS011;7908;51.688;7.130;2023-05-07T13:15:06;7.05;;;4.70;;
15616;SDS011;7908;51.688;7.130;2023-05-07T13:17:36;7.72;;;4.85;;
15616;SDS011;7908;51.688;7.130;2023-05-07T13:20:05;5.43;;;3.83;;
15616;SDS011;7908;51.688;7.130;2023-05-07T13:22:35;7.10;;;4.60;;
15616;SDS011;7908;51.688;7.130;2023-05-07T13:25:05;7.43;;;4.68;;
15616;SDS011;7908;51.688;7.130;2023-05-07T13:27:36;7.10;;;4.63;;
15616;SDS011;7908;51.688;7.130;2023-05-07T13:30:05;7.35;;;5.18;;
15616;SDS011;7908;51.688;7.130;2023-05-07T13:32:39;5.45;;;3.95;;
15616;SDS011;7908;51.688;7.130;2023-05-07T13:35:08;6.85;;;4.50;;
15616;SDS011;7908;51.688;7.130;2023-05-07T13:37:38;7.10;;;3.67;;
15616;SDS011;7908;51.688;7.130;2023-05-07T13:40:08;20.45;;;13.05;;
15616;SDS011;7908;51.688;7.130;2023-05-07T13:42:39;6.60;;;4.68;;
15616;SDS011;7908;51.688;7.130;2023-05-07T13:45:09;6.35;;;4.00;;
15616;SDS011;7908;51.688;7.130;2023-05-07T13:47:40;4.82;;;3.70;;
15616;SDS011;7908;51.688;7.130;2023-05-07T13:50:10;11.63;;;7.80;;
15616;SDS011;7908;51.688;7.130;2023-05-07T13:52:40;8.38;;;5.18;;
15616;SDS011;7908;51.688;7.130;2023-05-07T13:55:13;8.68;;;4.80;;
15616;SDS011;7908;51.688;7.130;2023-05-07T13:57:43;6.65;;;5.43;;
15616;SDS011;7908;51.688;7.130;2023-05-07T14:00:13;10.35;;;7.35;;
15616;SDS011;7908;51.688;7.130;2023-05-07T14:02:52;5.82;;;5.10;;
15616;SDS011;7908;51.688;7.130;2023-05-07T14:05:22;15.68;;;11.95;;
15616;SDS011;7908;51.688;7.130;2023-05-07T14:07:53;14.23;;;9.20;;
15616;SDS011;7908;51.688;7.130;2023-05-07T14:10:25;8.70;;;7.10;;
15616;SDS011;7908;51.688;7.130;2023-05-07T14:12:57;5.72;;;4.75;;
15616;SDS011;7908;51.688;7.130;2023-05-07T14:15:26;6.72;;;5.90;;
15616;SDS011;7908;51.688;7.130;2023-05-07T14:17:55;9.80;;;6.70;;
15616;SDS011;7908;51.688;7.130;2023-05-07T14:20:26;8.20;;;6.63;;
15616;SDS011;7908;51.688;7.130;2023-05-07T14:22:55;9.65;;;6.13;;
15616;SDS011;7908;51.688;7.130;2023-05-07T14:25:27;7.82;;;6.22;;
15616;SDS011;7908;51.688;7.130;2023-05-07T14:27:57;10.95;;;8.90;;
15616;SDS011;7908;51.688;7.130;2023-05-07T14:30:26;8.13;;;6.47;;
15616;SDS011;7908;51.688;7.130;2023-05-07T14:32:55;8.98;;;6.70;;
15616;SDS011;7908;51.688;7.130;2023-05-07T14:35:25;7.93;;;6.45;;
15616;SDS011;7908;51.688;7.130;2023-05-07T14:37:54;7.47;;;6.55;;
15616;SDS011;7908;51.688;7.130;2023-05-07T14:40:23;8.45;;;7.43;;
15616;SDS011;7908;51.688;7.130;2023-05-07T14:42:52;9.57;;;8.23;;
15616;SDS011;7908;51.688;7.130;2023-05-07T14:45:25;24.20;;;17.45;;
15616;SDS011;7908;51.688;7.130;2023-05-07T14:47:57;18.07;;;14.13;;
15616;SDS011;7908;51.688;7.130;2023-05-07T14:50:26;12.30;;;10.50;;
15616;SDS011;7908;51.688;7.130;2023-05-07T14:52:55;17.53;;;14.47;;
15616;SDS011;7908;51.688;7.130;2023-05-07T14:55:24;14.73;;;13.07;;
15616;SDS011;7908;51.688;7.130;2023-05-07T14:57:57;18.30;;;13.53;;
15616;SDS011;7908;51.688;7.130;2023-05-07T15:00:31;14.27;;;12.60;;
15616;SDS011;7908;51.688;7.130;2023-05-07T15:03:05;20.00;;;17.23;;
15616;SDS011;7908;51.688;7.130;2023-05-07T15:05:38;14.30;;;11.73;;
15616;SDS011;7908;51.688;7.130;2023-05-07T15:08:08;12.43;;;11.17;;
15616;SDS011;7908;51.688;7.130;2023-05-07T15:10:37;16.40;;;14.17;;
15616;SDS011;7908;51.688;7.130;2023-05-07T15:13:09;15.07;;;12.43;;
15616;SDS011;7908;51.688;7.130;2023-05-07T15:15:44;15.37;;;13.73;;
15616;SDS011;7908;51.688;7.130;2023-05-07T15:18:14;15.70;;;13.40;;
15616;SDS011;7908;51.688;7.130;2023-05-07T15:20:43;14.97;;;11.87;;
15616;SDS011;7908;51.688;7.130;2023-05-07T15:23:12;14.40;;;12.13;;
15616;SDS011;7908;51.688;7.130;2023-05-07T15:25:41;15.73;;;13.83;;